createdAt,value
2022-11-20T00:00:38.048Z,998.48
2022-11-20T00:01:41.060Z,998.49
2022-11-20T00:02:37.983Z,998.48
2022-11-20T00:03:37.966Z,998.45
2022-11-20T00:04:37.966Z,998.47
2022-11-20T00:05:38.142Z,998.45
2022-11-20T00:06:37.977Z,998.43
2022-11-20T00:07:37.954Z,998.46
2022-11-20T00:08:37.923Z,998.49
2022-11-20T00:09:38.147Z,998.50
2022-11-20T00:10:37.921Z,998.48
2022-11-20T00:11:38.107Z,998.47
2022-11-20T00:12:37.911Z,998.49
2022-11-20T00:13:38.878Z,998.47
2022-11-20T00:14:37.860Z,998.45
2022-11-20T00:15:37.848Z,998.44
2022-11-20T00:16:37.866Z,998.42
2022-11-20T00:17:38.062Z,998.38
2022-11-20T00:18:37.851Z,998.40
2022-11-20T00:19:38.036Z,998.40
2022-11-20T00:20:38.822Z,998.45
2022-11-20T00:21:38.036Z,998.41
2022-11-20T00:22:38.057Z,998.38
2022-11-20T00:23:38.789Z,998.38
2022-11-20T00:24:42.860Z,998.39
2022-11-20T00:25:38.725Z,998.41
2022-11-20T00:26:45.139Z,998.41
2022-11-20T00:27:37.739Z,998.33
2022-11-20T00:28:37.711Z,998.33
2022-11-20T00:29:37.723Z,998.29
2022-11-20T00:30:37.709Z,998.30
2022-11-20T00:31:38.683Z,998.27
2022-11-20T00:32:37.659Z,998.26
2022-11-20T00:33:37.668Z,998.24
2022-11-20T00:34:38.661Z,998.20
2022-11-20T00:35:40.901Z,998.29
2022-11-20T00:36:37.659Z,998.24
2022-11-20T00:37:38.847Z,998.23
2022-11-20T00:38:37.681Z,998.27
2022-11-20T00:39:37.597Z,998.22
2022-11-20T00:40:37.825Z,998.23
2022-11-20T00:41:37.804Z,998.22
2022-11-20T00:42:37.584Z,998.28
2022-11-20T00:43:37.792Z,998.29
2022-11-20T00:44:37.568Z,998.32
2022-11-20T00:45:58.546Z,998.35
2022-11-20T00:46:37.509Z,998.28
2022-11-20T00:47:40.798Z,998.27
2022-11-20T00:48:37.503Z,998.30
2022-11-20T00:49:37.745Z,998.34
2022-11-20T00:50:37.503Z,998.37
2022-11-20T00:51:44.784Z,998.32
2022-11-20T00:52:37.465Z,998.37
2022-11-20T00:53:37.450Z,998.29
2022-11-20T00:54:37.734Z,998.28
2022-11-20T00:55:37.426Z,998.22
2022-11-20T00:56:37.428Z,998.24
2022-11-20T00:57:40.669Z,998.22
2022-11-20T00:58:40.427Z,998.23
2022-11-20T00:59:38.462Z,998.22
2022-11-20T01:00:37.640Z,998.26
2022-11-20T01:01:47.144Z,998.29
2022-11-20T01:02:37.359Z,998.30
2022-11-20T01:03:40.053Z,998.30
2022-11-20T01:04:38.870Z,998.32
2022-11-20T01:05:37.335Z,998.27
2022-11-20T01:06:37.305Z,998.25
2022-11-20T01:07:37.575Z,998.28
2022-11-20T01:08:58.514Z,998.24
2022-11-20T01:09:37.298Z,998.26
2022-11-20T01:10:37.299Z,998.26
2022-11-20T01:11:37.517Z,998.24
2022-11-20T01:12:37.239Z,998.20
2022-11-20T01:13:38.248Z,998.17
2022-11-20T01:14:40.254Z,998.16
2022-11-20T01:15:37.247Z,998.21
2022-11-20T01:16:37.217Z,998.20
2022-11-20T01:17:38.217Z,998.19
2022-11-20T01:18:38.208Z,998.21
2022-11-20T01:19:37.194Z,998.21
2022-11-20T01:20:37.170Z,998.21
2022-11-20T01:21:37.182Z,998.17
2022-11-20T01:22:40.185Z,998.20
2022-11-20T01:23:37.209Z,998.22
2022-11-20T01:24:44.407Z,998.20
2022-11-20T01:25:37.119Z,998.23
2022-11-20T01:26:37.083Z,998.21
2022-11-20T01:27:37.129Z,998.21
2022-11-20T01:28:38.099Z,998.20
2022-11-20T01:29:44.105Z,998.15
2022-11-20T01:30:37.042Z,998.13
2022-11-20T01:31:37.051Z,998.18
2022-11-20T01:32:37.050Z,998.17
2022-11-20T01:33:40.313Z,998.19
2022-11-20T01:34:37.240Z,998.15
2022-11-20T01:35:37.043Z,998.16
2022-11-20T01:36:38.008Z,998.17
2022-11-20T01:37:37.020Z,998.21
2022-11-20T01:38:36.992Z,998.22
2022-11-20T01:39:37.213Z,998.15
2022-11-20T01:40:40.009Z,998.25
2022-11-20T01:41:52.522Z,998.21
2022-11-20T01:42:36.940Z,998.22
2022-11-20T01:43:36.955Z,998.16
2022-11-20T01:44:36.936Z,998.17
2022-11-20T01:45:38.166Z,998.14
2022-11-20T01:46:37.132Z,998.12
2022-11-20T01:47:52.239Z,998.11
2022-11-20T01:48:37.117Z,998.10
2022-11-20T01:49:38.138Z,998.09
2022-11-20T01:50:36.890Z,998.12
2022-11-20T01:51:36.886Z,998.13
2022-11-20T01:52:37.096Z,998.09
2022-11-20T01:53:37.827Z,998.08
2022-11-20T01:54:36.805Z,998.09
2022-11-20T01:55:37.049Z,998.06
2022-11-20T01:56:36.781Z,998.07
2022-11-20T01:57:37.035Z,998.08
2022-11-20T01:58:37.032Z,998.03
2022-11-20T01:59:36.754Z,998.06
2022-11-20T02:00:36.744Z,998.10
2022-11-20T02:01:40.115Z,998.14
2022-11-20T02:02:40.010Z,998.11
2022-11-20T02:03:36.963Z,998.11
2022-11-20T02:04:36.739Z,998.08
2022-11-20T02:05:36.985Z,998.11
2022-11-20T02:06:36.920Z,998.12
2022-11-20T02:07:36.776Z,998.13
2022-11-20T02:08:36.695Z,998.11
2022-11-20T02:09:36.910Z,998.11
2022-11-20T02:10:36.649Z,998.06
2022-11-20T02:11:36.882Z,998.07
2022-11-20T02:12:36.623Z,998.01
2022-11-20T02:13:36.878Z,998.05
2022-11-20T02:14:36.605Z,998.02
2022-11-20T02:15:36.862Z,998.09
2022-11-20T02:16:36.583Z,998.03
2022-11-20T02:17:36.801Z,998.06
2022-11-20T02:18:36.803Z,998.02
2022-11-20T02:19:36.798Z,997.98
2022-11-20T02:20:36.549Z,997.98
2022-11-20T02:21:36.551Z,998.00
2022-11-20T02:22:36.752Z,997.93
2022-11-20T02:23:36.543Z,997.98
2022-11-20T02:24:36.727Z,997.98
2022-11-20T02:25:36.759Z,997.99
2022-11-20T02:26:36.721Z,998.00
2022-11-20T02:27:36.478Z,998.00
2022-11-20T02:28:36.458Z,998.02
2022-11-20T02:29:36.472Z,998.03
2022-11-20T02:30:36.456Z,998.04
2022-11-20T02:31:36.692Z,998.03
2022-11-20T02:32:36.419Z,998.00
2022-11-20T02:33:36.432Z,998.01
2022-11-20T02:34:36.398Z,997.99
2022-11-20T02:35:36.617Z,998.04
2022-11-20T02:36:36.393Z,997.98
2022-11-20T02:37:43.833Z,997.94
2022-11-20T02:38:36.598Z,997.97
2022-11-20T02:39:37.399Z,997.94
2022-11-20T02:40:43.782Z,997.98
2022-11-20T02:41:36.603Z,997.96
2022-11-20T02:42:36.547Z,997.97
2022-11-20T02:43:36.317Z,997.97
2022-11-20T02:44:36.319Z,998.00
2022-11-20T02:45:37.561Z,997.94
2022-11-20T02:46:36.278Z,997.96
2022-11-20T02:47:36.534Z,997.88
2022-11-20T02:48:43.786Z,997.94
2022-11-20T02:49:37.493Z,997.92
2022-11-20T02:50:36.250Z,997.88
2022-11-20T02:51:51.720Z,997.87
2022-11-20T02:52:36.249Z,997.84
2022-11-20T02:53:36.232Z,997.87
2022-11-20T02:54:36.190Z,997.92
2022-11-20T02:55:36.201Z,997.88
2022-11-20T02:56:58.447Z,997.86
2022-11-20T02:57:57.201Z,997.84
2022-11-20T02:58:36.175Z,997.81
2022-11-20T02:59:37.162Z,997.85
2022-11-20T03:00:36.144Z,997.84
2022-11-20T03:01:36.188Z,997.85
2022-11-20T03:02:39.358Z,997.88
2022-11-20T03:03:36.123Z,997.86
2022-11-20T03:04:36.091Z,997.81
2022-11-20T03:05:36.113Z,997.80
2022-11-20T03:06:36.079Z,997.80
2022-11-20T03:07:52.033Z,997.78
2022-11-20T03:08:36.080Z,997.75
2022-11-20T03:09:37.094Z,997.73
2022-11-20T03:10:36.270Z,997.77
2022-11-20T03:11:43.132Z,997.72
2022-11-20T03:12:37.025Z,997.75
2022-11-20T03:13:37.038Z,997.73
2022-11-20T03:14:36.002Z,997.79
2022-11-20T03:15:51.704Z,997.77
2022-11-20T03:16:35.962Z,997.78
2022-11-20T03:17:36.214Z,997.76
2022-11-20T03:18:36.968Z,997.77
2022-11-20T03:19:36.959Z,997.75
2022-11-20T03:20:35.969Z,997.72
2022-11-20T03:21:35.927Z,997.71
2022-11-20T03:22:35.900Z,997.67
2022-11-20T03:23:39.153Z,997.69
2022-11-20T03:24:35.882Z,997.67
2022-11-20T03:25:35.954Z,997.73
2022-11-20T03:26:42.974Z,997.73
2022-11-20T03:27:36.094Z,997.73
2022-11-20T03:28:35.858Z,997.72
2022-11-20T03:29:38.899Z,997.72
2022-11-20T03:30:38.850Z,997.66
2022-11-20T03:31:35.840Z,997.63
2022-11-20T03:32:36.832Z,997.63
2022-11-20T03:33:36.655Z,997.64
2022-11-20T03:34:37.023Z,997.70
2022-11-20T03:35:36.812Z,997.71
2022-11-20T03:36:35.807Z,997.80
2022-11-20T03:37:36.771Z,997.81
2022-11-20T03:38:35.764Z,997.84
2022-11-20T03:39:38.786Z,997.84
2022-11-20T03:40:35.751Z,997.82
2022-11-20T03:41:35.736Z,997.77
2022-11-20T03:42:36.732Z,997.80
2022-11-20T03:43:35.957Z,997.79
2022-11-20T03:44:35.684Z,997.79
2022-11-20T03:45:35.666Z,997.82
2022-11-20T03:46:35.682Z,997.85
2022-11-20T03:47:36.904Z,997.79
2022-11-20T03:48:35.679Z,997.75
2022-11-20T03:49:35.879Z,997.68
2022-11-20T03:50:35.861Z,997.61
2022-11-20T03:51:36.900Z,997.54
2022-11-20T03:52:35.615Z,997.53
2022-11-20T03:53:36.844Z,997.50
2022-11-20T03:54:35.585Z,997.49
2022-11-20T03:55:36.586Z,997.57
2022-11-20T03:56:35.556Z,997.61
2022-11-20T03:57:35.575Z,997.64
2022-11-20T03:58:36.536Z,997.66
2022-11-20T03:59:36.790Z,997.70
2022-11-20T04:00:36.792Z,997.69
2022-11-20T04:01:35.816Z,997.66
2022-11-20T04:02:35.742Z,997.67
2022-11-20T04:03:35.511Z,997.61
2022-11-20T04:04:36.713Z,997.63
2022-11-20T04:05:35.733Z,997.67
2022-11-20T04:06:35.458Z,997.60
2022-11-20T04:07:35.731Z,997.60
2022-11-20T04:08:35.478Z,997.63
2022-11-20T04:09:35.443Z,997.65
2022-11-20T04:10:35.422Z,997.68
2022-11-20T04:11:35.450Z,997.63
2022-11-20T04:12:36.648Z,997.64
2022-11-20T04:13:35.666Z,997.65
2022-11-20T04:14:35.380Z,997.64
2022-11-20T04:15:38.315Z,997.71
2022-11-20T04:16:36.360Z,997.70
2022-11-20T04:17:35.638Z,997.71
2022-11-20T04:18:35.318Z,997.70
2022-11-20T04:19:35.329Z,997.70
2022-11-20T04:20:36.328Z,997.68
2022-11-20T04:21:35.310Z,997.68
2022-11-20T04:22:36.334Z,997.66
2022-11-20T04:23:35.318Z,997.69
2022-11-20T04:24:35.290Z,997.67
2022-11-20T04:25:35.494Z,997.67
2022-11-20T04:26:36.503Z,997.68
2022-11-20T04:27:42.519Z,997.69
2022-11-20T04:28:35.259Z,997.67
2022-11-20T04:29:35.247Z,997.61
2022-11-20T04:30:36.247Z,997.64
2022-11-20T04:31:35.215Z,997.60
2022-11-20T04:32:35.208Z,997.55
2022-11-20T04:33:36.231Z,997.54
2022-11-20T04:34:35.211Z,997.55
2022-11-20T04:35:35.186Z,997.53
2022-11-20T04:36:36.150Z,997.54
2022-11-20T04:37:42.310Z,997.52
2022-11-20T04:38:35.363Z,997.50
2022-11-20T04:39:35.390Z,997.47
2022-11-20T04:40:35.348Z,997.48
2022-11-20T04:41:35.138Z,997.46
2022-11-20T04:42:36.091Z,997.54
2022-11-20T04:43:35.313Z,997.57
2022-11-20T04:44:35.072Z,997.58
2022-11-20T04:45:36.068Z,997.54
2022-11-20T04:46:35.313Z,997.56
2022-11-20T04:47:35.295Z,997.49
2022-11-20T04:48:35.039Z,997.51
2022-11-20T04:49:35.278Z,997.48
2022-11-20T04:50:35.023Z,997.51
2022-11-20T04:51:35.004Z,997.53
2022-11-20T04:52:35.000Z,997.56
2022-11-20T04:53:36.002Z,997.56
2022-11-20T04:54:36.187Z,997.58
2022-11-20T04:55:34.987Z,997.56
2022-11-20T04:56:35.174Z,997.54
2022-11-20T04:57:34.960Z,997.55
2022-11-20T04:58:34.910Z,997.54
2022-11-20T04:59:41.987Z,997.54
2022-11-20T05:00:35.904Z,997.53
2022-11-20T05:01:34.948Z,997.43
2022-11-20T05:02:34.896Z,997.45
2022-11-20T05:03:38.462Z,997.42
2022-11-20T05:04:35.885Z,997.35
2022-11-20T05:05:41.932Z,997.37
2022-11-20T05:06:35.113Z,997.34
2022-11-20T05:07:37.906Z,997.31
2022-11-20T05:08:34.833Z,997.28
2022-11-20T05:09:34.799Z,997.30
2022-11-20T05:10:34.814Z,997.32
2022-11-20T05:11:34.787Z,997.37
2022-11-20T05:12:34.848Z,997.35
2022-11-20T05:13:34.782Z,997.38
2022-11-20T05:14:35.797Z,997.35
2022-11-20T05:15:34.800Z,997.32
2022-11-20T05:16:34.744Z,997.28
2022-11-20T05:17:34.985Z,997.24
2022-11-20T05:18:34.726Z,997.19
2022-11-20T05:19:34.702Z,997.17
2022-11-20T05:20:34.962Z,997.18
2022-11-20T05:21:34.674Z,997.18
2022-11-20T05:22:34.691Z,997.16
2022-11-20T05:23:34.965Z,997.12
2022-11-20T05:24:34.685Z,997.14
2022-11-20T05:25:34.670Z,997.14
2022-11-20T05:26:34.645Z,997.14
2022-11-20T05:27:42.100Z,997.11
2022-11-20T05:28:35.633Z,997.08
2022-11-20T05:29:34.886Z,997.07
2022-11-20T05:30:34.852Z,997.11
2022-11-20T05:31:35.878Z,997.15
2022-11-20T05:32:34.593Z,997.28
2022-11-20T05:33:34.557Z,997.33
2022-11-20T05:34:34.597Z,997.32
2022-11-20T05:35:35.554Z,997.34
2022-11-20T05:36:35.557Z,997.31
2022-11-20T05:37:37.810Z,997.29
2022-11-20T05:38:37.530Z,997.32
2022-11-20T05:39:35.744Z,997.32
2022-11-20T05:40:34.521Z,997.32
2022-11-20T05:41:34.491Z,997.36
2022-11-20T05:42:35.499Z,997.35
2022-11-20T05:43:34.509Z,997.35
2022-11-20T05:44:34.480Z,997.34
2022-11-20T05:45:34.455Z,997.29
2022-11-20T05:46:34.442Z,997.31
2022-11-20T05:47:37.428Z,997.38
2022-11-20T05:48:35.439Z,997.35
2022-11-20T05:49:37.667Z,997.38
2022-11-20T05:50:34.650Z,997.41
2022-11-20T05:51:41.608Z,997.38
2022-11-20T05:52:34.371Z,997.34
2022-11-20T05:53:34.355Z,997.31
2022-11-20T05:54:35.610Z,997.32
2022-11-20T05:55:34.386Z,997.31
2022-11-20T05:56:35.579Z,997.26
2022-11-20T05:57:37.345Z,997.26
2022-11-20T05:58:34.323Z,997.26
2022-11-20T05:59:35.330Z,997.25
2022-11-20T06:00:34.551Z,997.24
2022-11-20T06:01:35.537Z,997.22
2022-11-20T06:02:35.555Z,997.18
2022-11-20T06:03:35.514Z,997.19
2022-11-20T06:04:34.241Z,997.17
2022-11-20T06:05:35.257Z,997.16
2022-11-20T06:06:34.282Z,997.19
2022-11-20T06:07:37.551Z,997.15
2022-11-20T06:08:37.265Z,997.16
2022-11-20T06:09:37.225Z,997.20
2022-11-20T06:10:34.202Z,997.19
2022-11-20T06:11:34.165Z,997.19
2022-11-20T06:12:34.412Z,997.21
2022-11-20T06:13:37.926Z,997.23
2022-11-20T06:14:38.195Z,997.21
2022-11-20T06:15:34.131Z,997.21
2022-11-20T06:16:37.164Z,997.21
2022-11-20T06:17:34.358Z,997.20
2022-11-20T06:18:34.113Z,997.21
2022-11-20T06:19:37.124Z,997.26
2022-11-20T06:20:42.311Z,997.25
2022-11-20T06:21:34.088Z,997.28
2022-11-20T06:22:35.073Z,997.24
2022-11-20T06:23:34.078Z,997.23
2022-11-20T06:24:34.061Z,997.32
2022-11-20T06:25:37.286Z,997.32
2022-11-20T06:26:34.019Z,997.29
2022-11-20T06:27:35.019Z,997.38
2022-11-20T06:28:37.274Z,997.32
2022-11-20T06:29:34.373Z,997.29
2022-11-20T06:30:34.009Z,997.27
2022-11-20T06:31:33.962Z,997.30
2022-11-20T06:32:33.994Z,997.30
2022-11-20T06:33:36.981Z,997.33
2022-11-20T06:34:33.976Z,997.32
2022-11-20T06:35:36.958Z,997.31
2022-11-20T06:36:36.961Z,997.28
2022-11-20T06:37:41.016Z,997.31
2022-11-20T06:38:33.900Z,997.34
2022-11-20T06:39:34.915Z,997.31
2022-11-20T06:40:34.157Z,997.37
2022-11-20T06:41:34.095Z,997.32
2022-11-20T06:42:34.896Z,997.38
2022-11-20T06:43:33.838Z,997.42
2022-11-20T06:44:33.874Z,997.42
2022-11-20T06:45:34.850Z,997.41
2022-11-20T06:46:33.827Z,997.36
2022-11-20T06:47:54.812Z,997.32
2022-11-20T06:48:41.218Z,997.35
2022-11-20T06:49:33.794Z,997.36
2022-11-20T06:50:33.821Z,997.37
2022-11-20T06:51:33.795Z,997.43
2022-11-20T06:52:33.752Z,997.44
2022-11-20T06:53:33.761Z,997.46
2022-11-20T06:54:36.993Z,997.46
2022-11-20T06:55:33.756Z,997.44
2022-11-20T06:56:33.761Z,997.43
2022-11-20T06:57:40.926Z,997.40
2022-11-20T06:58:40.792Z,997.37
2022-11-20T06:59:33.686Z,997.32
2022-11-20T07:00:33.702Z,997.33
2022-11-20T07:01:34.728Z,997.34
2022-11-20T07:02:33.915Z,997.42
2022-11-20T07:03:33.652Z,997.32
2022-11-20T07:04:34.654Z,997.40
2022-11-20T07:05:36.913Z,997.45
2022-11-20T07:06:33.629Z,997.41
2022-11-20T07:07:33.718Z,997.46
2022-11-20T07:08:33.579Z,997.46
2022-11-20T07:09:33.583Z,997.46
2022-11-20T07:10:33.793Z,997.47
2022-11-20T07:11:36.838Z,997.51
2022-11-20T07:12:33.803Z,997.54
2022-11-20T07:13:36.798Z,997.53
2022-11-20T07:14:33.535Z,997.52
2022-11-20T07:15:34.551Z,997.55
2022-11-20T07:16:34.549Z,997.55
2022-11-20T07:17:36.546Z,997.52
2022-11-20T07:18:33.513Z,997.53
2022-11-20T07:19:36.791Z,997.54
2022-11-20T07:20:33.461Z,997.56
2022-11-20T07:21:33.460Z,997.49
2022-11-20T07:22:34.469Z,997.53
2022-11-20T07:23:33.708Z,997.54
2022-11-20T07:24:34.414Z,997.47
2022-11-20T07:25:33.683Z,997.54
2022-11-20T07:26:33.403Z,997.57
2022-11-20T07:27:34.425Z,997.53
2022-11-20T07:28:33.388Z,997.54
2022-11-20T07:29:33.653Z,997.50
2022-11-20T07:30:36.385Z,997.48
2022-11-20T07:31:33.356Z,997.49
2022-11-20T07:32:33.341Z,997.56
2022-11-20T07:33:36.518Z,997.59
2022-11-20T07:34:33.580Z,997.57
2022-11-20T07:35:48.784Z,997.58
2022-11-20T07:36:34.313Z,997.60
2022-11-20T07:37:36.333Z,997.57
2022-11-20T07:38:34.320Z,997.55
2022-11-20T07:39:33.539Z,997.55
2022-11-20T07:40:36.287Z,997.55
2022-11-20T07:41:33.265Z,997.49
2022-11-20T07:42:34.269Z,997.53
2022-11-20T07:43:38.390Z,997.55
2022-11-20T07:44:34.254Z,997.53
2022-11-20T07:45:33.231Z,997.54
2022-11-20T07:46:33.193Z,997.45
2022-11-20T07:47:40.464Z,997.45
2022-11-20T07:48:34.215Z,997.39
2022-11-20T07:49:33.404Z,997.42
2022-11-20T07:50:33.165Z,997.40
2022-11-20T07:51:33.152Z,997.42
2022-11-20T07:52:34.143Z,997.33
2022-11-20T07:53:33.146Z,997.31
2022-11-20T07:54:34.112Z,997.30
2022-11-20T07:55:33.365Z,997.32
2022-11-20T07:56:33.079Z,997.33
2022-11-20T07:57:33.090Z,997.40
2022-11-20T07:58:33.301Z,997.44
2022-11-20T07:59:33.084Z,997.50
2022-11-20T08:00:34.110Z,997.57
2022-11-20T08:01:33.304Z,997.57
2022-11-20T08:02:36.058Z,997.54
2022-11-20T08:03:33.267Z,997.56
2022-11-20T08:04:33.243Z,997.61
2022-11-20T08:05:33.244Z,997.61
2022-11-20T08:06:33.251Z,997.69
2022-11-20T08:07:33.041Z,997.64
2022-11-20T08:08:40.046Z,997.53
2022-11-20T08:09:41.169Z,997.49
2022-11-20T08:10:35.974Z,997.49
2022-11-20T08:11:32.965Z,997.48
2022-11-20T08:12:33.949Z,997.51
2022-11-20T08:13:40.006Z,997.51
2022-11-20T08:14:35.929Z,997.50
2022-11-20T08:15:48.533Z,997.51
2022-11-20T08:16:33.142Z,997.52
2022-11-20T08:17:33.926Z,997.51
2022-11-20T08:18:35.917Z,997.51
2022-11-20T08:19:32.862Z,997.57
2022-11-20T08:20:32.855Z,997.54
2022-11-20T08:21:38.012Z,997.54
2022-11-20T08:22:33.842Z,997.62
2022-11-20T08:23:34.060Z,997.60
2022-11-20T08:24:35.841Z,997.63
2022-11-20T08:25:33.036Z,997.65
2022-11-20T08:26:33.779Z,997.61
2022-11-20T08:27:33.262Z,997.62
2022-11-20T08:28:32.987Z,997.68
2022-11-20T08:29:32.754Z,997.70
2022-11-20T08:30:32.759Z,997.65
2022-11-20T08:31:32.739Z,997.59
2022-11-20T08:32:32.743Z,997.65
2022-11-20T08:33:32.732Z,997.61
2022-11-20T08:34:35.962Z,997.71
2022-11-20T08:35:35.712Z,997.68
2022-11-20T08:36:33.701Z,997.72
2022-11-20T08:37:32.933Z,997.73
2022-11-20T08:38:33.393Z,997.77
2022-11-20T08:39:33.701Z,997.76
2022-11-20T08:40:48.156Z,997.76
2022-11-20T08:41:33.641Z,997.78
2022-11-20T08:42:32.651Z,997.75
2022-11-20T08:43:33.868Z,997.79
2022-11-20T08:44:32.603Z,997.78
2022-11-20T08:45:35.826Z,997.77
2022-11-20T08:46:32.814Z,997.80
2022-11-20T08:47:39.808Z,997.80
2022-11-20T08:48:32.634Z,997.76
2022-11-20T08:49:35.599Z,997.77
2022-11-20T08:50:34.104Z,997.80
2022-11-20T08:51:33.780Z,997.84
2022-11-20T08:52:35.712Z,997.87
2022-11-20T08:53:33.773Z,997.86
2022-11-20T08:54:33.734Z,997.89
2022-11-20T08:55:33.745Z,997.82
2022-11-20T08:56:32.475Z,997.86
2022-11-20T08:57:32.511Z,997.81
2022-11-20T08:58:55.098Z,997.83
2022-11-20T09:00:36.794Z,997.83
2022-11-20T09:01:32.442Z,997.84
2022-11-20T09:02:35.688Z,997.79
2022-11-20T09:03:33.085Z,997.81
2022-11-20T09:04:32.426Z,997.81
2022-11-20T09:05:32.389Z,997.89
2022-11-20T09:06:32.371Z,997.87
2022-11-20T09:07:32.396Z,997.88
2022-11-20T09:08:35.387Z,997.88
2022-11-20T09:09:32.371Z,997.85
2022-11-20T09:10:32.354Z,997.84
2022-11-20T09:11:35.369Z,997.84
2022-11-20T09:12:56.540Z,997.87
2022-11-20T09:13:32.313Z,997.83
2022-11-20T09:14:32.313Z,997.87
2022-11-20T09:15:33.279Z,997.87
2022-11-20T09:16:39.561Z,997.84
2022-11-20T09:17:35.532Z,997.84
2022-11-20T09:18:32.264Z,997.84
2022-11-20T09:19:36.327Z,997.85
2022-11-20T09:20:56.293Z,997.82
2022-11-20T09:21:35.241Z,997.86
2022-11-20T09:22:33.213Z,997.87
2022-11-20T09:23:33.238Z,997.90
2022-11-20T09:24:35.280Z,997.89
2022-11-20T09:25:32.179Z,997.90
2022-11-20T09:26:32.170Z,997.87
2022-11-20T09:27:32.367Z,997.90
2022-11-20T09:28:32.380Z,997.84
2022-11-20T09:29:32.357Z,997.84
2022-11-20T09:30:32.164Z,997.84
2022-11-20T09:31:32.107Z,997.87
2022-11-20T09:32:32.123Z,997.90
2022-11-20T09:33:33.120Z,997.90
2022-11-20T09:34:32.081Z,997.89
2022-11-20T09:35:32.338Z,997.92
2022-11-20T09:36:32.080Z,997.92
2022-11-20T09:37:39.116Z,997.88
2022-11-20T09:38:32.059Z,997.88
2022-11-20T09:39:35.075Z,997.85
2022-11-20T09:40:32.047Z,997.82
2022-11-20T09:41:32.038Z,997.84
2022-11-20T09:42:33.034Z,997.85
2022-11-20T09:43:34.872Z,997.87
2022-11-20T09:44:32.002Z,997.89
2022-11-20T09:45:47.308Z,997.87
2022-11-20T09:46:32.962Z,997.88
2022-11-20T09:47:32.190Z,997.91
2022-11-20T09:48:43.346Z,997.86
2022-11-20T09:49:32.866Z,997.87
2022-11-20T09:50:39.149Z,997.92
2022-11-20T09:51:31.918Z,997.93
2022-11-20T09:52:31.927Z,997.86
2022-11-20T09:53:31.889Z,997.87
2022-11-20T09:54:34.918Z,997.89
2022-11-20T09:55:32.903Z,997.88
2022-11-20T09:56:31.854Z,997.88
2022-11-20T09:57:31.892Z,997.87
2022-11-20T09:58:31.865Z,997.86
2022-11-20T09:59:31.822Z,997.82
2022-11-20T10:00:32.077Z,997.82
2022-11-20T10:01:34.843Z,997.81
2022-11-20T10:02:53.044Z,997.80
2022-11-20T10:03:31.787Z,997.76
2022-11-20T10:04:34.535Z,997.78
2022-11-20T10:05:35.784Z,997.78
2022-11-20T10:06:34.806Z,997.76
2022-11-20T10:07:35.090Z,997.68
2022-11-20T10:08:31.803Z,997.72
2022-11-20T10:09:31.775Z,997.78
2022-11-20T10:10:32.977Z,997.76
2022-11-20T10:11:32.015Z,997.82
2022-11-20T10:12:31.712Z,997.82
2022-11-20T10:13:31.724Z,997.82
2022-11-20T10:15:08.071Z,997.82
2022-11-20T10:15:31.655Z,997.79
2022-11-20T10:16:36.689Z,997.74
2022-11-20T10:17:32.626Z,997.78
2022-11-20T10:18:32.885Z,997.76
2022-11-20T10:19:31.937Z,997.76
2022-11-20T10:20:34.693Z,997.72
2022-11-20T10:21:46.920Z,997.68
2022-11-20T10:22:32.615Z,997.64
2022-11-20T10:23:32.897Z,997.61
2022-11-20T10:24:31.598Z,997.64
2022-11-20T10:25:31.551Z,997.65
2022-11-20T10:26:31.783Z,997.66
2022-11-20T10:27:38.689Z,997.59
2022-11-20T10:28:31.516Z,997.61
2022-11-20T10:29:31.508Z,997.59
2022-11-20T10:30:31.559Z,997.57
2022-11-20T10:31:31.500Z,997.59
2022-11-20T10:32:38.945Z,997.60
2022-11-20T10:33:50.031Z,997.61
2022-11-20T10:34:35.736Z,997.63
2022-11-20T10:35:31.466Z,997.62
2022-11-20T10:36:31.685Z,997.60
2022-11-20T10:37:34.468Z,997.59
2022-11-20T10:38:38.632Z,997.62
2022-11-20T10:39:32.436Z,997.64
2022-11-20T10:40:31.422Z,997.64
2022-11-20T10:41:33.111Z,997.62
2022-11-20T10:42:32.431Z,997.60
2022-11-20T10:43:31.588Z,997.60
2022-11-20T10:44:38.587Z,997.58
2022-11-20T10:45:32.360Z,997.57
2022-11-20T10:46:31.362Z,997.55
2022-11-20T10:47:52.331Z,997.56
2022-11-20T10:48:32.308Z,997.57
2022-11-20T10:49:31.569Z,997.54
2022-11-20T10:50:32.348Z,997.58
2022-11-20T10:51:34.311Z,997.57
2022-11-20T10:52:31.281Z,997.58
2022-11-20T10:53:31.506Z,997.56
2022-11-20T10:54:31.254Z,997.60
2022-11-20T10:55:31.239Z,997.57
2022-11-20T10:56:38.420Z,997.56
2022-11-20T10:57:31.485Z,997.55
2022-11-20T10:58:32.223Z,997.56
2022-11-20T10:59:34.256Z,997.55
2022-11-20T11:00:34.215Z,997.56
2022-11-20T11:01:34.257Z,997.55
2022-11-20T11:02:31.193Z,997.57
2022-11-20T11:03:32.166Z,997.58
2022-11-20T11:04:31.145Z,997.54
2022-11-20T11:05:32.173Z,997.52
2022-11-20T11:06:32.357Z,997.54
2022-11-20T11:07:31.398Z,997.55
2022-11-20T11:08:31.112Z,997.55
2022-11-20T11:09:32.105Z,997.54
2022-11-20T11:10:34.123Z,997.52
2022-11-20T11:11:34.115Z,997.48
2022-11-20T11:12:31.088Z,997.46
2022-11-20T11:13:32.080Z,997.45
2022-11-20T11:14:34.082Z,997.42
2022-11-20T11:15:32.277Z,997.38
2022-11-20T11:16:32.254Z,997.38
2022-11-20T11:17:38.225Z,997.43
2022-11-20T11:18:31.032Z,997.35
2022-11-20T11:19:31.015Z,997.33
2022-11-20T11:20:34.020Z,997.33
2022-11-20T11:21:32.023Z,997.33
2022-11-20T11:22:33.970Z,997.29
2022-11-20T11:23:31.204Z,997.29
2022-11-20T11:24:46.245Z,997.30
2022-11-20T11:25:31.938Z,997.27
2022-11-20T11:26:30.924Z,997.28
2022-11-20T11:27:30.939Z,997.28
2022-11-20T11:28:31.180Z,997.27
2022-11-20T11:29:31.128Z,997.22
2022-11-20T11:30:31.158Z,997.21
2022-11-20T11:31:30.894Z,997.23
2022-11-20T11:32:31.864Z,997.22
2022-11-20T11:33:30.868Z,997.20
2022-11-20T11:34:31.074Z,997.16
2022-11-20T11:35:31.082Z,997.15
2022-11-20T11:36:32.060Z,997.13
2022-11-20T11:37:32.046Z,997.08
2022-11-20T11:38:31.054Z,997.05
2022-11-20T11:39:32.045Z,997.07
2022-11-20T11:40:31.008Z,997.01
2022-11-20T11:41:33.807Z,997.01
2022-11-20T11:42:30.754Z,997.01
2022-11-20T11:43:35.222Z,997.02
2022-11-20T11:44:32.734Z,996.99
2022-11-20T11:45:30.751Z,997.02
2022-11-20T11:46:30.707Z,997.02
2022-11-20T11:47:30.711Z,997.03
2022-11-20T11:48:30.713Z,997.07
2022-11-20T11:49:30.726Z,997.03
2022-11-20T11:50:31.915Z,996.99
2022-11-20T11:51:30.911Z,997.02
2022-11-20T11:52:30.666Z,997.05
2022-11-20T11:53:31.651Z,997.03
2022-11-20T11:54:30.875Z,997.02
2022-11-20T11:55:30.641Z,997.01
2022-11-20T11:56:30.603Z,996.96
2022-11-20T11:57:31.633Z,996.96
2022-11-20T11:58:33.635Z,996.97
2022-11-20T11:59:31.831Z,996.99
2022-11-20T12:00:30.827Z,996.85
2022-11-20T12:01:30.568Z,996.88
2022-11-20T12:02:30.810Z,996.95
2022-11-20T12:03:37.895Z,996.92
2022-11-20T12:04:54.578Z,996.87
2022-11-20T12:05:31.519Z,996.93
2022-11-20T12:06:30.527Z,996.94
2022-11-20T12:07:46.050Z,996.89
2022-11-20T12:08:31.547Z,996.90
2022-11-20T12:09:31.495Z,996.91
2022-11-20T12:10:30.702Z,996.87
2022-11-20T12:11:30.459Z,996.88
2022-11-20T12:12:31.475Z,996.89
2022-11-20T12:13:30.659Z,996.89
2022-11-20T12:14:30.424Z,996.88
2022-11-20T12:15:30.396Z,996.88
2022-11-20T12:16:30.663Z,996.90
2022-11-20T12:17:30.392Z,996.95
2022-11-20T12:18:30.624Z,996.92
2022-11-20T12:19:33.403Z,996.91
2022-11-20T12:20:30.362Z,996.95
2022-11-20T12:21:30.370Z,996.94
2022-11-20T12:22:33.387Z,996.94
2022-11-20T12:23:30.326Z,996.93
2022-11-20T12:24:31.338Z,996.96
2022-11-20T12:25:30.571Z,996.94
2022-11-20T12:26:30.552Z,996.94
2022-11-20T12:27:33.546Z,997.00
2022-11-20T12:28:31.537Z,997.02
2022-11-20T12:29:45.636Z,997.01